createdAt,value
2019-03-01T00:00:45.441Z,1000.72
2019-03-01T00:01:45.400Z,1000.70
2019-03-01T00:02:45.395Z,1000.80
2019-03-01T00:03:45.374Z,1000.75
2019-03-01T00:04:45.434Z,1000.79
2019-03-01T00:05:45.365Z,1000.73
2019-03-01T00:06:45.339Z,1000.77
2019-03-01T00:07:45.360Z,1000.73
2019-03-01T00:08:45.326Z,1000.75
2019-03-01T00:09:45.309Z,1000.70
2019-03-01T00:10:45.307Z,1000.69
2019-03-01T00:11:45.281Z,1000.73
2019-03-01T00:12:45.314Z,1000.76
2019-03-01T00:13:45.264Z,1000.71
2019-03-01T00:14:45.270Z,1000.73
2019-03-01T00:15:45.255Z,1000.71
2019-03-01T00:16:45.229Z,1000.72
2019-03-01T00:17:45.250Z,1000.72
2019-03-01T00:18:45.208Z,1000.72
2019-03-01T00:19:45.202Z,1000.69
2019-03-01T00:20:45.184Z,1000.64
2019-03-01T00:21:45.174Z,1000.65
2019-03-01T00:22:45.184Z,1000.63
2019-03-01T00:23:45.160Z,1000.60
2019-03-01T00:24:45.155Z,1000.64
2019-03-01T00:25:45.134Z,1000.56
2019-03-01T00:26:45.120Z,1000.58
2019-03-01T00:27:45.116Z,1000.54
2019-03-01T00:28:45.103Z,1000.51
2019-03-01T00:29:45.082Z,1000.53
2019-03-01T00:30:45.081Z,1000.50
2019-03-01T00:31:45.062Z,1000.50
2019-03-01T00:32:45.094Z,1000.49
2019-03-01T00:33:45.044Z,1000.48
2019-03-01T00:34:45.035Z,1000.49
2019-03-01T00:35:45.027Z,1000.47
2019-03-01T00:36:45.001Z,1000.42
2019-03-01T00:37:45.004Z,1000.41
2019-03-01T00:38:44.991Z,1000.44
2019-03-01T00:39:44.981Z,1000.34
2019-03-01T00:40:44.973Z,1000.37
2019-03-01T00:41:44.959Z,1000.34
2019-03-01T00:42:44.934Z,1000.35
2019-03-01T00:43:44.953Z,1000.32
2019-03-01T00:44:44.928Z,1000.37
2019-03-01T00:45:44.916Z,1000.37
2019-03-01T00:46:44.905Z,1000.34
2019-03-01T00:47:44.897Z,1000.36
2019-03-01T00:48:44.897Z,1000.33
2019-03-01T00:49:44.894Z,1000.29
2019-03-01T00:50:44.861Z,1000.28
2019-03-01T00:51:44.848Z,1000.28
2019-03-01T00:52:44.834Z,1000.25
2019-03-01T00:53:44.839Z,1000.24
2019-03-01T00:54:44.834Z,1000.27
2019-03-01T00:55:44.803Z,1000.22
2019-03-01T00:56:44.788Z,1000.25
2019-03-01T00:57:44.770Z,1000.22
2019-03-01T00:58:44.802Z,1000.19
2019-03-01T00:59:44.757Z,1000.22
2019-03-01T01:00:44.743Z,1000.21
2019-03-01T01:01:44.736Z,1000.23
2019-03-01T01:02:44.735Z,1000.18
2019-03-01T01:03:44.732Z,1000.17
2019-03-01T01:04:44.696Z,1000.14
2019-03-01T01:05:44.683Z,1000.10
2019-03-01T01:06:44.692Z,1000.14
2019-03-01T01:07:44.661Z,1000.16
2019-03-01T01:08:44.692Z,1000.14
2019-03-01T01:09:44.647Z,1000.10
2019-03-01T01:10:44.628Z,1000.05
2019-03-01T01:11:44.622Z,1000.02
2019-03-01T01:12:44.615Z,1000.02
2019-03-01T01:13:44.629Z,999.99
2019-03-01T01:14:44.597Z,999.96
2019-03-01T01:15:44.584Z,999.98
2019-03-01T01:16:44.567Z,1000.00
2019-03-01T01:17:44.556Z,999.95
2019-03-01T01:18:44.565Z,999.94
2019-03-01T01:19:44.542Z,999.94
2019-03-01T01:20:44.519Z,999.94
2019-03-01T01:21:44.516Z,999.95
2019-03-01T01:22:44.503Z,999.92
2019-03-01T01:23:44.525Z,999.99
2019-03-01T01:24:44.486Z,999.97
2019-03-01T01:25:44.477Z,999.94
2019-03-01T01:26:44.462Z,999.92
2019-03-01T01:27:44.462Z,999.93
2019-03-01T01:28:44.459Z,999.95
2019-03-01T01:29:44.426Z,999.91
2019-03-01T01:30:44.426Z,999.94
2019-03-01T01:31:44.403Z,999.93
2019-03-01T01:32:44.390Z,999.94
2019-03-01T01:33:45.272Z,999.90
2019-03-01T01:34:44.381Z,999.89
2019-03-01T01:35:44.364Z,999.91
2019-03-01T01:36:44.346Z,999.89
2019-03-01T01:37:44.341Z,999.86
2019-03-01T01:38:44.321Z,999.89
2019-03-01T01:39:44.353Z,999.85
2019-03-01T01:40:44.301Z,999.84
2019-03-01T01:41:44.297Z,999.86
2019-03-01T01:42:44.286Z,999.84
2019-03-01T01:43:44.301Z,999.83
2019-03-01T01:44:44.286Z,999.82
2019-03-01T01:45:44.257Z,999.83
2019-03-01T01:46:44.240Z,999.81
2019-03-01T01:47:44.225Z,999.82
2019-03-01T01:48:44.213Z,999.77
2019-03-01T01:49:44.234Z,999.78
2019-03-01T01:50:44.213Z,999.75
2019-03-01T01:51:44.190Z,999.74
2019-03-01T01:52:44.177Z,999.78
2019-03-01T01:53:44.169Z,999.69
2019-03-01T01:55:53.366Z,999.69
2019-03-01T01:56:54.333Z,999.72
2019-03-01T01:57:54.328Z,999.68
2019-03-01T01:58:54.306Z,999.71
2019-03-01T01:59:54.309Z,999.66
2019-03-01T02:00:54.337Z,999.67
2019-03-01T02:01:54.276Z,999.63
2019-03-01T02:02:54.261Z,999.62
2019-03-01T02:03:54.259Z,999.65
2019-03-01T02:04:54.239Z,999.66
2019-03-01T02:05:54.261Z,999.61
2019-03-01T02:06:54.228Z,999.56
2019-03-01T02:07:54.210Z,999.64
2019-03-01T02:08:54.205Z,999.61
2019-03-01T02:09:54.180Z,999.57
2019-03-01T02:10:54.205Z,999.62
2019-03-01T02:11:54.175Z,999.59
2019-03-01T02:12:54.148Z,999.60
2019-03-01T02:13:54.145Z,999.59
2019-03-01T02:14:54.135Z,999.58
2019-03-01T02:15:54.147Z,999.52
2019-03-01T02:16:54.131Z,999.58
2019-03-01T02:17:54.092Z,999.57
2019-03-01T02:18:57.704Z,999.54
2019-03-01T02:19:54.078Z,999.58
2019-03-01T02:20:54.072Z,999.59
2019-03-01T02:21:54.057Z,999.55
2019-03-01T02:22:54.047Z,999.54
2019-03-01T02:23:54.040Z,999.49
2019-03-01T02:24:54.023Z,999.51
2019-03-01T02:25:54.009Z,999.48
2019-03-01T02:26:54.010Z,999.45
2019-03-01T02:27:53.996Z,999.45
2019-03-01T02:28:53.986Z,999.43
2019-03-01T02:29:53.968Z,999.38
2019-03-01T02:30:53.962Z,999.38
2019-03-01T02:31:53.976Z,999.40
2019-03-01T02:32:53.942Z,999.45
2019-03-01T02:33:53.924Z,999.38
2019-03-01T02:34:53.922Z,999.42
2019-03-01T02:35:53.905Z,999.39
2019-03-01T02:36:53.935Z,999.39
2019-03-01T02:37:53.900Z,999.39
2019-03-01T02:38:53.877Z,999.40
2019-03-01T02:39:53.873Z,999.37
2019-03-01T02:40:53.853Z,999.35
2019-03-01T02:41:53.859Z,999.39
2019-03-01T02:42:53.826Z,999.38
2019-03-01T02:43:53.812Z,999.44
2019-03-01T02:44:53.807Z,999.39
2019-03-01T02:45:53.781Z,999.43
2019-03-01T02:46:53.803Z,999.43
2019-03-01T02:47:53.792Z,999.41
2019-03-01T02:48:53.754Z,999.39
2019-03-01T02:49:53.749Z,999.38
2019-03-01T02:50:53.725Z,999.38
2019-03-01T02:51:53.752Z,999.39
2019-03-01T02:52:53.719Z,999.37
2019-03-01T02:53:53.702Z,999.35
2019-03-01T02:54:53.685Z,999.43
2019-03-01T02:55:53.686Z,999.36
2019-03-01T02:56:53.680Z,999.39
2019-03-01T02:57:53.752Z,999.36
2019-03-01T02:58:53.650Z,999.37
2019-03-01T02:59:53.632Z,999.38
2019-03-01T03:00:53.630Z,999.33
2019-03-01T03:01:53.650Z,999.35
2019-03-01T03:02:53.614Z,999.34
2019-03-01T03:03:53.587Z,999.34
2019-03-01T03:04:53.581Z,999.32
2019-03-01T03:05:53.567Z,999.31
2019-03-01T03:06:53.581Z,999.32
2019-03-01T03:07:53.557Z,999.39
2019-03-01T03:08:53.536Z,999.36
2019-03-01T03:09:53.520Z,999.34
2019-03-01T03:10:53.511Z,999.34
2019-03-01T03:11:53.507Z,999.35
2019-03-01T03:12:53.529Z,999.35
2019-03-01T03:13:53.481Z,999.30
2019-03-01T03:14:53.463Z,999.31
2019-03-01T03:15:53.461Z,999.28
2019-03-01T03:16:53.448Z,999.25
2019-03-01T03:17:53.478Z,999.25
2019-03-01T03:18:53.444Z,999.26
2019-03-01T03:19:53.404Z,999.22
2019-03-01T03:20:53.399Z,999.23
2019-03-01T03:21:53.400Z,999.20
2019-03-01T03:22:53.400Z,999.24
2019-03-01T03:23:53.384Z,999.28
2019-03-01T03:24:53.356Z,999.30
2019-03-01T03:25:53.337Z,999.25
2019-03-01T03:26:53.362Z,999.27
2019-03-01T03:27:53.341Z,999.23
2019-03-01T03:28:53.313Z,999.25
2019-03-01T03:29:53.304Z,999.28
2019-03-01T03:30:53.281Z,999.26
2019-03-01T03:31:53.297Z,999.25
2019-03-01T03:32:53.284Z,999.22
2019-03-01T03:33:53.268Z,999.25
2019-03-01T03:34:53.247Z,999.25
2019-03-01T03:35:53.231Z,999.26
2019-03-01T03:36:53.224Z,999.25
2019-03-01T03:37:53.239Z,999.23
2019-03-01T03:38:53.215Z,999.19
2019-03-01T03:39:53.186Z,999.23
2019-03-01T03:40:53.201Z,999.22
2019-03-01T03:41:53.176Z,999.22
2019-03-01T03:42:53.183Z,999.23
2019-03-01T03:43:53.140Z,999.25
2019-03-01T03:44:53.139Z,999.25
2019-03-01T03:45:53.125Z,999.29
2019-03-01T03:46:53.109Z,999.27
2019-03-01T03:47:53.133Z,999.31
2019-03-01T03:48:53.088Z,999.24
2019-03-01T03:49:53.086Z,999.25
2019-03-01T03:50:53.079Z,999.25
2019-03-01T03:51:53.087Z,999.23
2019-03-01T03:52:53.077Z,999.24
2019-03-01T03:53:53.041Z,999.27
2019-03-01T03:54:53.022Z,999.20
2019-03-01T03:57:02.227Z,999.17
2019-03-01T03:58:03.236Z,999.17
2019-03-01T03:59:03.197Z,999.16
2019-03-01T04:00:03.232Z,999.18
2019-03-01T04:01:03.166Z,999.17
2019-03-01T04:02:03.155Z,999.14
2019-03-01T04:03:03.167Z,999.08
2019-03-01T04:04:03.133Z,999.11
2019-03-01T04:05:03.133Z,999.13
2019-03-01T04:06:03.110Z,999.09
2019-03-01T04:07:03.102Z,999.10
2019-03-01T04:08:03.118Z,999.08
2019-03-01T04:09:03.089Z,999.06
2019-03-01T04:10:03.085Z,999.10
2019-03-01T04:11:03.060Z,999.08
2019-03-01T04:12:03.065Z,999.15
2019-03-01T04:13:03.065Z,999.13
2019-03-01T04:14:03.031Z,999.12
2019-03-01T04:15:03.023Z,999.12
2019-03-01T04:16:03.011Z,999.14
2019-03-01T04:17:03.020Z,999.11
2019-03-01T04:18:02.975Z,999.09
2019-03-01T04:19:03.008Z,999.08
2019-03-01T04:20:02.965Z,999.12
2019-03-01T04:21:02.959Z,999.11
2019-03-01T04:22:02.941Z,999.10
2019-03-01T04:23:02.921Z,999.09
2019-03-01T04:24:02.937Z,999.08
2019-03-01T04:25:02.907Z,999.07
2019-03-01T04:26:02.886Z,999.13
2019-03-01T04:27:02.901Z,999.13
2019-03-01T04:28:02.879Z,999.13
2019-03-01T04:29:02.880Z,999.12
2019-03-01T04:30:03.140Z,999.11
2019-03-01T04:31:02.843Z,999.07
2019-03-01T04:32:02.861Z,999.09
2019-03-01T04:33:02.817Z,999.05
2019-03-01T04:34:02.835Z,999.05
2019-03-01T04:35:02.801Z,999.04
2019-03-01T04:36:02.799Z,999.05
2019-03-01T04:37:02.772Z,999.07
2019-03-01T04:38:02.761Z,999.01
2019-03-01T04:39:02.797Z,999.00
2019-03-01T04:40:02.773Z,999.02
2019-03-01T04:41:02.733Z,999.02
2019-03-01T04:42:02.757Z,999.04
2019-03-01T04:43:02.722Z,999.07
2019-03-01T04:44:02.734Z,998.99
2019-03-01T04:45:02.702Z,998.99
2019-03-01T04:46:02.675Z,998.98
2019-03-01T04:47:02.660Z,998.96
2019-03-01T04:48:02.660Z,998.98
2019-03-01T04:49:02.660Z,998.95
2019-03-01T04:50:02.626Z,998.87
2019-03-01T04:51:02.620Z,998.93
2019-03-01T04:52:02.605Z,998.88
2019-03-01T04:53:02.593Z,998.90
2019-03-01T04:54:02.603Z,998.87
2019-03-01T04:55:02.576Z,998.84
2019-03-01T04:56:02.565Z,998.81
2019-03-01T04:57:02.555Z,998.83
2019-03-01T04:58:02.534Z,998.87
2019-03-01T04:59:02.543Z,998.84
2019-03-01T05:00:02.526Z,998.84
2019-03-01T05:01:02.525Z,998.86
2019-03-01T05:02:02.498Z,998.85
2019-03-01T05:03:02.477Z,998.85
2019-03-01T05:04:02.492Z,998.86
2019-03-01T05:05:02.464Z,998.87
2019-03-01T05:06:02.465Z,998.86
2019-03-01T05:07:02.447Z,998.87
2019-03-01T05:08:02.439Z,998.90
2019-03-01T05:09:02.437Z,998.87
2019-03-01T05:10:02.410Z,998.88
2019-03-01T05:11:02.394Z,998.91
2019-03-01T05:12:02.407Z,998.91
2019-03-01T05:13:02.367Z,998.92
2019-03-01T05:14:02.384Z,998.93
2019-03-01T05:15:02.353Z,998.95
2019-03-01T05:16:02.338Z,998.99
2019-03-01T05:17:02.342Z,999.00
2019-03-01T05:18:02.318Z,999.00
2019-03-01T05:19:02.332Z,998.96
2019-03-01T05:20:02.315Z,998.99
2019-03-01T05:21:02.284Z,999.01
2019-03-01T05:22:02.276Z,998.98
2019-03-01T05:23:02.266Z,998.99
2019-03-01T05:24:02.273Z,999.02
2019-03-01T05:25:02.259Z,999.03
2019-03-01T05:26:02.219Z,998.99
2019-03-01T05:27:02.241Z,999.03
2019-03-01T05:28:02.198Z,999.01
2019-03-01T05:29:02.220Z,999.08
2019-03-01T05:30:02.193Z,999.06
2019-03-01T05:31:02.177Z,999.05
2019-03-01T05:32:02.165Z,999.08
2019-03-01T05:33:02.157Z,999.09
2019-03-01T05:34:02.160Z,999.12
2019-03-01T05:35:02.135Z,999.12
2019-03-01T05:36:02.119Z,999.14
2019-03-01T05:37:02.105Z,999.06
2019-03-01T05:38:02.088Z,999.10
2019-03-01T05:39:02.100Z,999.09
2019-03-01T05:40:02.085Z,999.10
2019-03-01T05:41:02.056Z,999.08
2019-03-01T05:42:02.059Z,999.04
2019-03-01T05:43:02.038Z,999.10
2019-03-01T05:44:02.030Z,999.03
2019-03-01T05:45:02.046Z,999.07
2019-03-01T05:46:02.020Z,999.07
2019-03-01T05:47:01.986Z,999.12
2019-03-01T05:48:01.986Z,999.13
2019-03-01T05:49:01.969Z,999.09
2019-03-01T05:50:01.995Z,999.06
2019-03-01T05:51:01.949Z,999.10
2019-03-01T05:52:01.940Z,999.08
2019-03-01T05:53:01.939Z,999.10
2019-03-01T05:54:01.917Z,999.08
2019-03-01T05:55:01.954Z,999.09
2019-03-01T05:56:01.895Z,999.09
2019-03-01T05:58:16.447Z,999.07
2019-03-01T05:59:12.357Z,999.07
2019-03-01T06:00:12.378Z,999.08
2019-03-01T06:01:12.347Z,999.10
2019-03-01T06:02:12.323Z,999.12
2019-03-01T06:03:12.317Z,999.14
2019-03-01T06:04:12.302Z,999.17
2019-03-01T06:05:12.317Z,999.17
2019-03-01T06:06:12.283Z,999.14
2019-03-01T06:07:12.282Z,999.16
2019-03-01T06:08:12.267Z,999.20
2019-03-01T06:09:12.251Z,999.21
2019-03-01T06:10:12.280Z,999.22
2019-03-01T06:11:12.239Z,999.20
2019-03-01T06:12:12.221Z,999.19
2019-03-01T06:13:12.210Z,999.20
2019-03-01T06:14:12.217Z,999.23
2019-03-01T06:15:12.213Z,999.23
2019-03-01T06:16:12.180Z,999.23
2019-03-01T06:17:12.158Z,999.23
2019-03-01T06:18:12.157Z,999.19
2019-03-01T06:19:12.146Z,999.22
2019-03-01T06:20:12.142Z,999.20
2019-03-01T06:21:12.120Z,999.22
2019-03-01T06:22:12.105Z,999.22
2019-03-01T06:23:12.097Z,999.21
2019-03-01T06:24:12.079Z,999.18
2019-03-01T06:25:12.105Z,999.22
2019-03-01T06:26:12.064Z,999.21
2019-03-01T06:27:12.046Z,999.20
2019-03-01T06:28:12.046Z,999.22
2019-03-01T06:29:12.023Z,999.24
2019-03-01T06:30:12.010Z,999.22
2019-03-01T06:31:12.013Z,999.27
2019-03-01T06:32:11.999Z,999.25
2019-03-01T06:33:11.985Z,999.26
2019-03-01T06:34:11.984Z,999.25
2019-03-01T06:35:11.964Z,999.25
2019-03-01T06:36:12.118Z,999.24
2019-03-01T06:37:11.931Z,999.22
2019-03-01T06:38:11.932Z,999.20
2019-03-01T06:39:11.971Z,999.29
2019-03-01T06:40:11.944Z,999.28
2019-03-01T06:41:11.933Z,999.28
2019-03-01T06:42:11.944Z,999.27
2019-03-01T06:43:12.002Z,999.26
2019-03-01T06:44:11.894Z,999.26
2019-03-01T06:45:11.876Z,999.27
2019-03-01T06:46:11.870Z,999.30
2019-03-01T06:47:11.830Z,999.29
2019-03-01T06:48:11.816Z,999.29
2019-03-01T06:49:11.818Z,999.34
2019-03-01T06:50:13.130Z,999.32
2019-03-01T06:51:11.794Z,999.31
2019-03-01T06:52:12.359Z,999.34
2019-03-01T06:53:11.773Z,999.31
2019-03-01T06:54:11.746Z,999.36
2019-03-01T06:55:11.765Z,999.35
2019-03-01T06:56:11.746Z,999.40
2019-03-01T06:57:11.720Z,999.34
2019-03-01T06:58:11.737Z,999.36
2019-03-01T06:59:12.913Z,999.34
2019-03-01T07:00:11.741Z,999.32
2019-03-01T07:01:11.673Z,999.31
2019-03-01T07:02:11.668Z,999.31
2019-03-01T07:03:11.676Z,999.29
2019-03-01T07:04:11.650Z,999.33
2019-03-01T07:05:11.737Z,999.35
2019-03-01T07:06:11.635Z,999.34
2019-03-01T07:07:11.646Z,999.36
2019-03-01T07:08:11.654Z,999.37
2019-03-01T07:09:11.591Z,999.37
2019-03-01T07:10:11.582Z,999.41
2019-03-01T07:11:11.569Z,999.40
2019-03-01T07:12:11.546Z,999.44
2019-03-01T07:13:11.567Z,999.48
2019-03-01T07:14:11.558Z,999.47
2019-03-01T07:15:11.864Z,999.49
2019-03-01T07:16:11.511Z,999.48
2019-03-01T07:17:11.518Z,999.49
2019-03-01T07:18:11.507Z,999.48
2019-03-01T07:19:11.497Z,999.47
2019-03-01T07:20:12.684Z,999.53
2019-03-01T07:21:11.476Z,999.49
2019-03-01T07:22:11.447Z,999.54
2019-03-01T07:23:11.463Z,999.53
2019-03-01T07:24:11.476Z,999.53
2019-03-01T07:25:11.403Z,999.53
2019-03-01T07:26:11.394Z,999.56
2019-03-01T07:27:12.352Z,999.58
2019-03-01T07:28:11.401Z,999.58
2019-03-01T07:29:11.442Z,999.60
2019-03-01T07:30:11.342Z,999.64
2019-03-01T07:31:11.359Z,999.63
2019-03-01T07:32:11.337Z,999.62
2019-03-01T07:33:11.349Z,999.69
2019-03-01T07:34:11.306Z,999.66
2019-03-01T07:35:11.382Z,999.70
2019-03-01T07:36:11.280Z,999.70
2019-03-01T07:37:11.295Z,999.71
2019-03-01T07:38:11.290Z,999.75
2019-03-01T07:39:11.294Z,999.77
2019-03-01T07:40:11.288Z,999.79
2019-03-01T07:41:11.263Z,999.82
2019-03-01T07:42:11.227Z,999.80
2019-03-01T07:43:11.228Z,999.79
2019-03-01T07:44:32.217Z,999.83
2019-03-01T07:45:11.223Z,999.85
2019-03-01T07:46:11.175Z,999.86
2019-03-01T07:47:11.176Z,999.78
2019-03-01T07:48:11.222Z,999.84
2019-03-01T07:49:11.172Z,999.83
2019-03-01T07:50:11.136Z,999.80
2019-03-01T07:51:11.116Z,999.76
2019-03-01T07:52:11.100Z,999.82
2019-03-01T07:53:11.114Z,999.75
2019-03-01T07:54:13.249Z,999.77
2019-03-01T07:55:11.065Z,999.79
2019-03-01T07:56:11.055Z,999.79
2019-03-01T07:57:11.516Z,999.82
2019-03-01T07:59:21.371Z,999.90
2019-03-01T08:00:22.334Z,999.92
2019-03-01T08:01:22.267Z,999.85
2019-03-01T08:02:22.253Z,999.94
2019-03-01T08:03:22.252Z,999.91
2019-03-01T08:04:23.811Z,999.92
2019-03-01T08:05:22.251Z,999.93
2019-03-01T08:06:22.210Z,999.91
2019-03-01T08:07:23.607Z,999.92
2019-03-01T08:08:22.190Z,999.95
2019-03-01T08:09:22.201Z,999.96
2019-03-01T08:10:23.239Z,999.93
2019-03-01T08:11:22.153Z,999.99
2019-03-01T08:12:22.144Z,999.96
2019-03-01T08:13:22.135Z,1000.00
2019-03-01T08:14:24.597Z,1000.00
2019-03-01T08:15:22.112Z,1000.03
2019-03-01T08:16:22.104Z,1000.04
2019-03-01T08:17:22.090Z,1000.07
2019-03-01T08:18:22.086Z,1000.11
2019-03-01T08:19:23.491Z,1000.07
2019-03-01T08:20:22.072Z,1000.11
2019-03-01T08:21:22.038Z,1000.09
2019-03-01T08:22:25.011Z,1000.12
2019-03-01T08:23:22.022Z,1000.11
2019-03-01T08:24:22.022Z,1000.16
2019-03-01T08:25:23.641Z,1000.16
2019-03-01T08:26:21.984Z,1000.15
2019-03-01T08:27:21.987Z,1000.16
2019-03-01T08:28:23.039Z,1000.18
2019-03-01T08:29:21.960Z,1000.18
2019-03-01T08:30:21.989Z,1000.19
2019-03-01T08:31:22.256Z,1000.22
2019-03-01T08:32:21.918Z,1000.27
2019-03-01T08:33:21.928Z,1000.28
2019-03-01T08:34:21.903Z,1000.26
2019-03-01T08:35:21.926Z,1000.31
2019-03-01T08:36:21.889Z,1000.34
2019-03-01T08:37:21.978Z,1000.29
2019-03-01T08:38:21.899Z,1000.33
2019-03-01T08:39:21.909Z,1000.36
2019-03-01T08:40:21.862Z,1000.34
2019-03-01T08:41:25.175Z,1000.35
2019-03-01T08:42:21.812Z,1000.37
2019-03-01T08:43:21.800Z,1000.40
2019-03-01T08:44:22.962Z,1000.39
2019-03-01T08:45:21.814Z,1000.40
2019-03-01T08:46:22.557Z,1000.41
2019-03-01T08:47:24.526Z,1000.38
2019-03-01T08:48:21.777Z,1000.46
2019-03-01T08:49:21.744Z,1000.46
2019-03-01T08:50:21.773Z,1000.43
2019-03-01T08:51:22.714Z,1000.45
2019-03-01T08:52:21.705Z,1000.47
2019-03-01T08:53:21.698Z,1000.47
2019-03-01T08:54:22.883Z,1000.48
2019-03-01T08:55:21.708Z,1000.48
2019-03-01T08:56:26.158Z,1000.48
2019-03-01T08:57:22.583Z,1000.53
2019-03-01T08:58:21.646Z,1000.54
2019-03-01T08:59:21.625Z,1000.53
2019-03-01T09:00:26.363Z,1000.55
2019-03-01T09:01:21.751Z,1000.53
2019-03-01T09:02:21.602Z,1000.56
2019-03-01T09:03:22.954Z,1000.56
2019-03-01T09:04:21.731Z,1000.58
2019-03-01T09:05:21.600Z,1000.56
2019-03-01T09:06:21.626Z,1000.58
2019-03-01T09:07:21.538Z,1000.57
2019-03-01T09:08:21.538Z,1000.57
2019-03-01T09:09:21.981Z,1000.60
2019-03-01T09:10:21.583Z,1000.61
2019-03-01T09:11:21.501Z,1000.58
2019-03-01T09:12:22.508Z,1000.57
2019-03-01T09:13:21.468Z,1000.57
2019-03-01T09:14:22.791Z,1000.60
2019-03-01T09:15:21.488Z,1000.62
2019-03-01T09:16:21.474Z,1000.58
2019-03-01T09:17:21.424Z,1000.64
2019-03-01T09:18:21.415Z,1000.62
2019-03-01T09:19:22.403Z,1000.55
2019-03-01T09:20:21.412Z,1000.58
2019-03-01T09:21:21.456Z,1000.57
2019-03-01T09:22:24.160Z,1000.60
2019-03-01T09:23:25.256Z,1000.60
2019-03-01T09:24:21.363Z,1000.58
2019-03-01T09:25:21.445Z,1000.55
2019-03-01T09:26:21.340Z,1000.57
2019-03-01T09:27:22.765Z,1000.58
2019-03-01T09:28:21.313Z,1000.60
2019-03-01T09:29:21.293Z,1000.57
2019-03-01T09:30:21.336Z,1000.61
2019-03-01T09:31:21.316Z,1000.64
2019-03-01T09:32:21.279Z,1000.62
2019-03-01T09:33:22.982Z,1000.68
2019-03-01T09:34:21.249Z,1000.63
2019-03-01T09:35:21.755Z,1000.67
2019-03-01T09:36:21.532Z,1000.67
2019-03-01T09:37:21.214Z,1000.73
2019-03-01T09:38:21.199Z,1000.70
2019-03-01T09:39:21.195Z,1000.75
2019-03-01T09:40:21.211Z,1000.70
2019-03-01T09:41:21.171Z,1000.70
2019-03-01T09:42:21.146Z,1000.70
2019-03-01T09:43:21.142Z,1000.72
2019-03-01T09:44:21.125Z,1000.74
2019-03-01T09:45:21.144Z,1000.74
2019-03-01T09:46:24.824Z,1000.75
2019-03-01T09:47:21.120Z,1000.78
2019-03-01T09:48:21.093Z,1000.75
2019-03-01T09:49:21.339Z,1000.74
2019-03-01T09:50:21.096Z,1000.76
2019-03-01T09:51:21.085Z,1000.76
2019-03-01T09:52:23.513Z,1000.78
2019-03-01T09:53:21.034Z,1000.74
2019-03-01T09:54:21.026Z,1000.80
2019-03-01T09:55:21.049Z,1000.81
2019-03-01T09:56:21.012Z,1000.79
2019-03-01T09:57:20.988Z,1000.84
2019-03-01T09:58:20.980Z,1000.83
2019-03-01T10:00:32.723Z,1000.85
2019-03-01T10:01:33.674Z,1000.86
2019-03-01T10:02:33.661Z,1000.91
2019-03-01T10:03:33.653Z,1000.87
2019-03-01T10:04:33.676Z,1000.91
2019-03-01T10:05:33.665Z,1000.92
2019-03-01T10:06:38.075Z,1000.92
2019-03-01T10:07:33.612Z,1000.87
2019-03-01T10:08:33.619Z,1000.91
2019-03-01T10:09:33.601Z,1000.88
2019-03-01T10:10:33.606Z,1000.92
2019-03-01T10:11:33.586Z,1000.97
2019-03-01T10:12:33.560Z,1001.00
2019-03-01T10:14:33.650Z,1001.08
2019-03-01T10:15:33.554Z,1001.05
2019-03-01T10:16:33.524Z,1001.06
2019-03-01T10:17:33.518Z,1001.07
2019-03-01T10:18:33.492Z,1001.12
2019-03-01T10:19:33.475Z,1001.09
2019-03-01T10:20:33.539Z,1001.12
2019-03-01T10:21:33.486Z,1001.09
2019-03-01T10:22:33.450Z,1001.08
2019-03-01T10:23:33.446Z,1001.12
2019-03-01T10:24:33.440Z,1001.17
2019-03-01T10:25:33.433Z,1001.16
2019-03-01T10:26:33.690Z,1001.18
2019-03-01T10:27:33.426Z,1001.20
2019-03-01T10:28:33.385Z,1001.24
2019-03-01T10:29:33.547Z,1001.22
2019-03-01T10:30:33.535Z,1001.23
2019-03-01T10:31:33.386Z,1001.29
2019-03-01T10:32:33.385Z,1001.28
2019-03-01T10:33:33.333Z,1001.27
2019-03-01T10:34:33.474Z,1001.32
2019-03-01T10:35:33.828Z,1001.31
2019-03-01T10:36:33.436Z,1001.30
2019-03-01T10:37:33.305Z,1001.32
2019-03-01T10:38:33.279Z,1001.25
2019-03-01T10:39:33.274Z,1001.34
2019-03-01T10:40:33.281Z,1001.30
2019-03-01T10:41:33.260Z,1001.32
2019-03-01T10:42:33.243Z,1001.28
2019-03-01T10:43:33.256Z,1001.34
2019-03-01T10:44:33.210Z,1001.31
2019-03-01T10:45:33.253Z,1001.32
2019-03-01T10:46:33.550Z,1001.35
2019-03-01T10:47:33.181Z,1001.33
2019-03-01T10:48:33.164Z,1001.34
2019-03-01T10:49:33.158Z,1001.34
2019-03-01T10:50:33.160Z,1001.34
2019-03-01T10:51:33.186Z,1001.34
2019-03-01T10:52:33.141Z,1001.38
2019-03-01T10:53:33.134Z,1001.37
2019-03-01T10:54:33.108Z,1001.41
2019-03-01T10:55:33.112Z,1001.42
2019-03-01T10:56:33.134Z,1001.44
2019-03-01T10:57:33.103Z,1001.47
2019-03-01T10:58:33.069Z,1001.43
2019-03-01T10:59:33.062Z,1001.47
2019-03-01T11:00:33.080Z,1001.42
2019-03-01T11:01:33.051Z,1001.43
2019-03-01T11:02:33.010Z,1001.44
2019-03-01T11:03:33.006Z,1001.48
2019-03-01T11:04:33.041Z,1001.49
2019-03-01T11:05:32.973Z,1001.51
2019-03-01T11:06:33.014Z,1001.47
2019-03-01T11:07:32.956Z,1001.42
2019-03-01T11:08:32.952Z,1001.48
2019-03-01T11:09:32.942Z,1001.48
2019-03-01T11:10:32.930Z,1001.53
2019-03-01T11:11:32.937Z,1001.53
2019-03-01T11:12:32.931Z,1001.50
2019-03-01T11:13:32.920Z,1001.54
2019-03-01T11:14:32.881Z,1001.53
2019-03-01T11:15:32.881Z,1001.54
2019-03-01T11:16:32.886Z,1001.56
2019-03-01T11:17:32.856Z,1001.59
2019-03-01T11:18:32.840Z,1001.60
2019-03-01T11:19:32.853Z,1001.64
2019-03-01T11:20:32.814Z,1001.59
2019-03-01T11:21:32.831Z,1001.59
2019-03-01T11:22:32.806Z,1001.60
2019-03-01T11:23:32.791Z,1001.62
2019-03-01T11:24:33.083Z,1001.63
2019-03-01T11:25:32.766Z,1001.57
2019-03-01T11:26:32.776Z,1001.61
2019-03-01T11:27:32.752Z,1001.60
2019-03-01T11:28:32.733Z,1001.60
2019-03-01T11:29:32.749Z,1001.62
2019-03-01T11:30:32.721Z,1001.69
2019-03-01T11:31:32.762Z,1001.69
2019-03-01T11:32:32.716Z,1001.69
2019-03-01T11:33:32.668Z,1001.76
2019-03-01T11:34:32.668Z,1001.71
2019-03-01T11:35:32.657Z,1001.75
2019-03-01T11:36:32.667Z,1001.74
2019-03-01T11:37:32.637Z,1001.75
2019-03-01T11:38:32.617Z,1001.76
2019-03-01T11:39:32.615Z,1001.84
2019-03-01T11:40:32.604Z,1001.92
2019-03-01T11:41:32.619Z,1001.90
2019-03-01T11:42:32.594Z,1001.85
2019-03-01T11:43:33.797Z,1001.95
2019-03-01T11:44:32.566Z,1001.94
2019-03-01T11:45:32.539Z,1001.97
2019-03-01T11:46:32.568Z,1001.91
2019-03-01T11:47:32.552Z,1001.95
2019-03-01T11:48:32.511Z,1001.92
2019-03-01T11:49:32.493Z,1001.97
2019-03-01T11:50:32.539Z,1001.90
2019-03-01T11:51:32.504Z,1001.99
2019-03-01T11:52:32.462Z,1002.01
2019-03-01T11:53:32.449Z,1002.01
2019-03-01T11:54:32.446Z,1002.07
2019-03-01T11:55:32.438Z,1002.08
2019-03-01T11:56:32.439Z,1002.16
2019-03-01T11:57:32.421Z,1002.20
2019-03-01T11:58:32.415Z,1002.14
2019-03-01T11:59:32.393Z,1002.16
2019-03-01T12:01:42.688Z,1002.15
2019-03-01T12:02:43.660Z,1002.18
2019-03-01T12:03:43.649Z,1002.22
2019-03-01T12:04:43.621Z,1002.20
2019-03-01T12:05:44.061Z,1002.20
2019-03-01T12:06:43.758Z,1002.20
2019-03-01T12:07:43.615Z,1002.25
2019-03-01T12:08:43.645Z,1002.22
2019-03-01T12:09:43.593Z,1002.20
2019-03-01T12:10:43.578Z,1002.20
2019-03-01T12:11:43.595Z,1002.25
2019-03-01T12:12:43.562Z,1002.23
2019-03-01T12:13:43.565Z,1002.18
2019-03-01T12:14:43.520Z,1002.26
2019-03-01T12:15:43.540Z,1002.27
2019-03-01T12:16:43.527Z,1002.27
2019-03-01T12:17:43.516Z,1002.22
2019-03-01T12:18:43.485Z,1002.33
2019-03-01T12:19:43.521Z,1002.37
2019-03-01T12:20:43.463Z,1002.43
2019-03-01T12:21:43.476Z,1002.42
2019-03-01T12:22:43.445Z,1002.43
2019-03-01T12:23:43.429Z,1002.43
2019-03-01T12:24:43.408Z,1002.51
2019-03-01T12:25:43.417Z,1002.45
2019-03-01T12:26:43.421Z,1002.53